Time;durP1;ratioP1;P1;durP2;ratioP2;P2;SDS_P1;SDS_P2;PMS_P1;PMS_P2;Temp;Humidity;BMP_temperature;BMP_pressure;BME280_temperature;BME280_humidity;BME280_pressure;Samples;Min_cycle;Max_cycle;Signal;HPM_P1;HPM_P2
2022/06/18 00:00:56;;;;;;;;;;;20.40;77.30;;;;;;5074325;28;20059;-76
2022/06/18 00:03:24;;;;;;;0.00;0.00;;;20.40;76.70;;;;;;5062575;28;19912;-78
2022/06/18 00:05:52;;;;;;;0.00;0.00;;;20.40;76.60;;;;;;5046039;28;20017;-76
2022/06/18 00:08:21;;;;;;;0.00;0.00;;;20.30;76.50;;;;;;5059860;28;20702;-79
2022/06/18 00:10:53;;;;;;;0.00;0.00;;;20.30;77.00;;;;;;5072223;28;20203;-76
2022/06/18 00:13:42;;;;;;;0.00;0.00;;;20.30;77.80;;;;;;5071694;28;21382;-76
2022/06/18 00:16:14;;;;;;;0.00;0.00;;;20.30;77.50;;;;;;5073069;28;20372;-76
2022/06/18 00:18:40;;;;;;;0.00;0.00;;;20.20;78.00;;;;;;5063375;28;20201;-79
2022/06/18 00:21:07;;;;;;;0.00;0.00;;;20.30;77.60;;;;;;5064788;28;20028;-76
2022/06/18 00:23:36;;;;;;;0.00;0.00;;;20.20;78.20;;;;;;5064600;28;20032;-76
2022/06/18 00:26:02;;;;;;;0.00;0.00;;;20.20;78.30;;;;;;5066100;28;20017;-76
2022/06/18 00:28:31;;;;;;;0.00;0.00;;;20.20;78.20;;;;;;5061561;28;20097;-78
2022/06/18 00:30:56;;;;;;;0.00;0.00;;;20.20;78.60;;;;;;5053563;28;20013;-77
2022/06/18 00:33:23;;;;;;;0.00;0.00;;;20.20;77.90;;;;;;5067541;28;20092;-76
2022/06/18 00:35:51;;;;;;;0.00;0.00;;;20.20;78.50;;;;;;5045045;28;20029;-73
2022/06/18 00:38:24;;;;;;;0.00;0.00;;;20.20;78.30;;;;;;5060238;28;20025;-76
2022/06/18 00:40:51;;;;;;;0.00;0.00;;;20.20;78.90;;;;;;5046490;28;20028;-76
2022/06/18 00:43:41;;;;;;;0.00;0.00;;;20.20;78.50;;;;;;5059986;28;20036;-78
2022/06/18 00:46:43;;;;;;;0.00;0.00;;;20.20;79.40;;;;;;5062056;28;20080;-76
2022/06/18 00:49:15;;;;;;;0.00;0.00;;;20.20;78.50;;;;;;5058433;28;20371;-75
2022/06/18 00:51:46;;;;;;;0.00;0.00;;;20.30;79.40;;;;;;5065908;28;20055;-78
2022/06/18 00:54:16;;;;;;;0.00;0.00;;;20.20;78.80;;;;;;5046035;28;20073;-75
2022/06/18 00:57:04;;;;;;;0.00;0.00;;;20.20;79.00;;;;;;5065605;28;20177;-76
2022/06/18 00:59:32;;;;;;;0.00;0.00;;;20.20;79.10;;;;;;5061755;28;20328;-77
2022/06/18 01:02:00;;;;;;;0.00;0.00;;;20.10;78.80;;;;;;5067652;28;20025;-75
2022/06/18 01:04:33;;;;;;;0.00;0.00;;;20.10;78.70;;;;;;5068335;28;20033;-75
2022/06/18 01:07:14;;;;;;;0.00;0.00;;;20.10;79.20;;;;;;5060440;28;20021;-75
2022/06/18 01:09:41;;;;;;;0.00;0.00;;;20.00;80.40;;;;;;5069379;28;20040;-75
2022/06/18 01:12:09;;;;;;;0.00;0.00;;;20.00;80.30;;;;;;5044238;28;20058;-76
2022/06/18 01:14:35;;;;;;;;;;;20.00;80.30;;;;;;5069001;28;20021;-75
2022/06/18 01:17:03;;;;;;;0.00;0.00;;;20.00;79.90;;;;;;5065149;28;20022;-76
2022/06/18 01:19:31;;;;;;;;;;;20.00;80.60;;;;;;5062772;28;20029;-76
2022/06/18 01:22:22;;;;;;;0.00;0.00;;;20.00;80.90;;;;;;5043795;28;19984;-75
2022/06/18 01:24:48;;;;;;;0.00;0.00;;;19.90;81.00;;;;;;5043158;28;20044;-77
2022/06/18 01:27:14;;;;;;;0.00;0.00;;;19.90;80.90;;;;;;5066520;28;20028;-75
2022/06/18 01:29:40;;;;;;;0.00;0.00;;;19.90;80.00;;;;;;5063441;28;20052;-75
2022/06/18 01:32:10;;;;;;;0.00;0.00;;;19.90;80.10;;;;;;5058866;28;20052;-75
2022/06/18 01:34:36;;;;;;;0.00;0.00;;;19.80;80.30;;;;;;5065090;28;20035;-76
2022/06/18 01:37:03;;;;;;;0.00;0.00;;;19.80;80.60;;;;;;5068039;28;20034;-75
2022/06/18 01:39:36;;;;;;;0.00;0.00;;;19.80;80.40;;;;;;5046798;28;20297;-75
2022/06/18 01:42:04;;;;;;;0.00;0.00;;;19.80;80.40;;;;;;5062495;28;20159;-75
2022/06/18 01:44:56;;;;;;;0.00;0.00;;;19.80;81.80;;;;;;5069003;28;20208;-75
2022/06/18 01:47:45;;;;;;;0.00;0.00;;;19.80;81.30;;;;;;5046717;28;20308;-75
2022/06/18 01:50:40;;;;;;;0.00;0.00;;;19.80;81.90;;;;;;5068732;28;20086;-76
2022/06/18 01:53:16;;;;;;;0.00;0.00;;;19.80;80.50;;;;;;5034625;28;20298;-75
2022/06/18 01:56:07;;;;;;;0.00;0.00;;;19.70;81.10;;;;;;5060364;28;20028;-76
2022/06/18 01:58:45;;;;;;;0.00;0.00;;;19.70;81.10;;;;;;5040711;28;20036;-75
2022/06/18 02:01:24;;;;;;;0.00;0.00;;;19.70;81.00;;;;;;5078973;28;20048;-76
2022/06/18 02:03:51;;;;;;;0.00;0.00;;;19.60;80.30;;;;;;5079506;28;20021;-76
2022/06/18 02:06:17;;;;;;;0.00;0.00;;;19.60;80.10;;;;;;5080998;28;20023;-76
2022/06/18 02:08:42;;;;;;;0.00;0.00;;;19.60;80.00;;;;;;5077135;28;20048;-75
2022/06/18 02:11:12;;;;;;;0.00;0.00;;;19.60;80.40;;;;;;5079649;28;20032;-75
2022/06/18 02:13:47;;;;;;;0.00;0.00;;;19.60;81.00;;;;;;5085496;28;20088;-77
2022/06/18 02:16:21;;;;;;;0.00;0.00;;;19.60;82.90;;;;;;5083136;28;20029;-75
2022/06/18 02:18:48;;;;;;;0.00;0.00;;;19.50;83.60;;;;;;5086363;28;20016;-75
2022/06/18 02:21:16;;;;;;;0.00;0.00;;;19.50;83.70;;;;;;5081019;28;20043;-75
2022/06/18 02:23:41;;;;;;;0.00;0.00;;;19.50;83.60;;;;;;5079300;28;20288;-76
2022/06/18 02:26:08;;;;;;;0.00;0.00;;;19.40;83.40;;;;;;5078725;28;20044;-76
2022/06/18 02:28:40;;;;;;;0.00;0.00;;;19.40;82.70;;;;;;5082785;28;20296;-76
2022/06/18 02:31:10;;;;;;;0.00;0.00;;;19.40;83.20;;;;;;5080202;28;20024;-76
2022/06/18 02:33:38;;;;;;;0.00;0.00;;;19.40;83.80;;;;;;5087487;28;20031;-76
2022/06/18 02:36:20;;;;;;;0.00;0.00;;;19.30;83.90;;;;;;5086946;28;20122;-77
2022/06/18 02:38:47;;;;;;;0.00;0.00;;;19.30;84.30;;;;;;5087739;28;20028;-76
2022/06/18 02:41:14;;;;;;;0.00;0.00;;;19.30;84.30;;;;;;5088587;28;20032;-77
2022/06/18 02:43:42;;;;;;;0.00;0.00;;;19.10;84.40;;;;;;5087038;28;20031;-75
2022/06/18 02:46:08;;;;;;;0.00;0.00;;;19.20;84.50;;;;;;5083863;28;20028;-78
2022/06/18 02:48:37;;;;;;;0.00;0.00;;;19.20;84.40;;;;;;5085825;28;20031;-75
2022/06/18 02:51:03;;;;;;;0.00;0.00;;;19.20;84.70;;;;;;5087671;28;20024;-76
2022/06/18 02:53:30;;;;;;;0.00;0.00;;;19.10;84.80;;;;;;5090844;28;20032;-76
2022/06/18 02:55:59;;;;;;;0.00;0.00;;;19.10;85.00;;;;;;5085791;28;20028;-75
2022/06/18 02:58:28;;;;;;;0.00;0.00;;;19.10;85.00;;;;;;5087682;28;20021;-76
2022/06/18 03:00:59;;;;;;;0.00;0.00;;;19.10;85.30;;;;;;5070903;28;20061;-76
2022/06/18 03:03:30;;;;;;;0.00;0.00;;;19.10;85.50;;;;;;5064203;28;20017;-76
2022/06/18 03:05:56;;;;;;;0.00;0.00;;;19.10;85.60;;;;;;5073400;28;20090;-76
2022/06/18 03:08:23;;;;;;;0.00;0.00;;;19.10;85.90;;;;;;5067069;28;20025;-77
2022/06/18 03:13:36;;;;;;;0.00;0.00;;;19.00;86.10;;;;;;5068972;28;20074;-77
2022/06/18 03:16:03;;;;;;;0.00;0.00;;;19.00;86.50;;;;;;5075672;28;20342;-75
2022/06/18 03:18:30;;;;;;;0.00;0.00;;;19.00;86.70;;;;;;5070946;28;20021;-75
2022/06/18 03:21:17;;;;;;;0.00;0.00;;;19.00;86.80;;;;;;5062135;28;20166;-75
2022/06/18 03:23:44;;;;;;;0.00;0.00;;;19.00;87.00;;;;;;5069053;28;20021;-76
2022/06/18 03:26:10;;;;;;;0.00;0.00;;;19.00;87.20;;;;;;5071005;28;20088;-75
2022/06/18 03:28:37;;;;;;;0.00;0.00;;;19.00;87.20;;;;;;5070662;28;20328;-75
2022/06/18 03:31:02;;;;;;;0.00;0.00;;;19.00;87.20;;;;;;5072736;28;20215;-75
2022/06/18 03:33:28;;;;;;;0.00;0.00;;;19.00;87.10;;;;;;5064852;28;20033;-77
2022/06/18 03:35:54;;;;;;;0.00;0.00;;;18.90;87.20;;;;;;5071642;28;20020;-76
2022/06/18 03:38:20;;;;;;;0.00;0.00;;;19.00;87.80;;;;;;5062305;28;20297;-76
2022/06/18 03:40:51;;;;;;;0.00;0.00;;;19.00;88.20;;;;;;5066777;28;20021;-78
2022/06/18 03:43:21;;;;;;;0.00;0.00;;;19.00;88.50;;;;;;5062841;28;20032;-76
2022/06/18 03:45:51;;;;;;;0.00;0.00;;;18.90;88.70;;;;;;5066847;28;20109;-78
2022/06/18 03:48:26;;;;;;;0.00;0.00;;;18.90;89.00;;;;;;5068948;28;20048;-77
2022/06/18 03:50:52;;;;;;;0.00;0.00;;;18.90;88.80;;;;;;5066960;28;20035;-76
2022/06/18 03:53:17;;;;;;;0.00;0.00;;;18.90;88.70;;;;;;5067655;28;20033;-79
2022/06/18 03:55:44;;;;;;;0.00;0.00;;;18.90;88.70;;;;;;5049830;28;20204;-75
2022/06/18 03:58:09;;;;;;;0.00;0.00;;;18.90;89.10;;;;;;5066153;28;20044;-76
2022/06/18 04:00:36;;;;;;;0.00;0.00;;;19.00;89.40;;;;;;5064902;28;20045;-76
2022/06/18 04:03:02;;;;;;;0.00;0.00;;;19.00;89.20;;;;;;5061024;28;20040;-78
2022/06/18 04:05:28;;;;;;;0.00;0.00;;;19.00;88.70;;;;;;5047924;28;20037;-75
2022/06/18 04:07:54;;;;;;;0.00;0.00;;;19.00;88.50;;;;;;5062452;28;20205;-77
2022/06/18 04:10:21;;;;;;;0.00;0.00;;;19.10;88.30;;;;;;5069558;28;20032;-76
2022/06/18 04:12:48;;;;;;;0.00;0.00;;;19.20;88.30;;;;;;5057346;28;20028;-79
2022/06/18 04:15:15;;;;;;;0.00;0.00;;;19.20;88.20;;;;;;5069705;28;20254;-76
2022/06/18 04:17:42;;;;;;;0.00;0.00;;;19.30;88.50;;;;;;5052738;28;20028;-76
2022/06/18 04:20:23;;;;;;;0.00;0.00;;;19.30;88.50;;;;;;5065059;28;20299;-78
2022/06/18 04:22:50;;;;;;;0.00;0.00;;;19.40;88.30;;;;;;5049331;28;20735;-76
2022/06/18 04:25:16;;;;;;;0.00;0.00;;;19.40;88.40;;;;;;5069873;28;20066;-76
2022/06/18 04:27:42;;;;;;;0.00;0.00;;;19.50;88.40;;;;;;5067356;28;20096;-76
2022/06/18 04:30:08;;;;;;;0.00;0.00;;;19.60;88.00;;;;;;5063874;28;20159;-78
2022/06/18 04:32:36;;;;;;;0.00;0.00;;;19.70;87.80;;;;;;5052515;28;20029;-75
2022/06/18 04:35:04;;;;;;;0.00;0.00;;;19.70;87.50;;;;;;5066898;28;20032;-75
2022/06/18 04:37:30;;;;;;;0.00;0.00;;;19.80;87.40;;;;;;5064225;28;20088;-77
2022/06/18 04:39:55;;;;;;;0.00;0.00;;;19.90;87.20;;;;;;5067142;28;20106;-75
2022/06/18 04:42:21;;;;;;;0.00;0.00;;;19.90;86.90;;;;;;5063410;28;20319;-77
2022/06/18 04:44:47;;;;;;;0.00;0.00;;;20.00;86.70;;;;;;5061217;28;20223;-76
2022/06/18 04:47:13;;;;;;;0.00;0.00;;;20.10;86.50;;;;;;5064275;28;20048;-75
2022/06/18 04:49:38;;;;;;;0.00;0.00;;;20.20;86.70;;;;;;5064319;28;20032;-75
2022/06/18 04:52:04;;;;;;;0.00;0.00;;;20.20;86.30;;;;;;5045123;28;20184;-76
2022/06/18 04:54:30;;;;;;;0.00;0.00;;;20.30;86.50;;;;;;5060508;28;20029;-75
2022/06/18 04:56:55;;;;;;;0.00;0.00;;;20.30;86.10;;;;;;5058670;28;20067;-76
2022/06/18 04:59:21;;;;;;;0.00;0.00;;;20.40;86.20;;;;;;5048187;28;20021;-75
2022/06/18 05:02:02;;;;;;;0.00;0.00;;;20.50;86.50;;;;;;5063734;28;20091;-75
2022/06/18 05:04:28;;;;;;;0.00;0.00;;;20.50;85.80;;;;;;5047744;28;20028;-75
2022/06/18 05:06:54;;;;;;;0.00;0.00;;;20.60;85.50;;;;;;5071951;28;20055;-75
2022/06/18 05:09:20;;;;;;;0.00;0.00;;;20.60;85.20;;;;;;5043862;28;20024;-75
2022/06/18 05:11:46;;;;;;;0.00;0.00;;;20.70;84.80;;;;;;5029498;28;20239;-75
2022/06/18 05:14:14;;;;;;;0.00;0.00;;;20.70;84.50;;;;;;5062479;28;20017;-76
2022/06/18 05:16:40;;;;;;;;;;;20.80;84.20;;;;;;5048296;28;20029;-76
2022/06/18 05:19:09;;;;;;;0.00;0.00;;;20.80;83.90;;;;;;5054537;28;20018;-75
2022/06/18 05:21:35;;;;;;;0.00;0.00;;;20.90;84.50;;;;;;5072763;28;20025;-76
2022/06/18 05:24:00;;;;;;;0.00;0.00;;;21.00;84.40;;;;;;5066796;28;20037;-75
2022/06/18 05:26:26;;;;;;;0.00;0.00;;;21.10;84.30;;;;;;5043710;28;20020;-76
2022/06/18 05:28:52;;;;;;;0.00;0.00;;;21.10;84.30;;;;;;5061476;28;20028;-75
2022/06/18 05:31:17;;;;;;;0.00;0.00;;;21.20;84.30;;;;;;5059721;28;20315;-76
2022/06/18 05:33:43;;;;;;;0.00;0.00;;;21.30;84.30;;;;;;5070344;28;20028;-75
2022/06/18 05:36:13;;;;;;;0.00;0.00;;;21.30;84.00;;;;;;5042616;28;20037;-76
2022/06/18 05:38:39;;;;;;;0.00;0.00;;;21.50;84.20;;;;;;5058817;28;20017;-74
2022/06/18 05:41:04;;;;;;;0.00;0.00;;;21.60;83.90;;;;;;5059037;28;20263;-75
2022/06/18 05:43:30;;;;;;;0.00;0.00;;;21.70;83.30;;;;;;5067157;28;20052;-75
2022/06/18 05:45:56;;;;;;;0.00;0.00;;;21.80;82.10;;;;;;5065446;28;20024;-77
2022/06/18 05:48:22;;;;;;;0.00;0.00;;;21.90;80.60;;;;;;5043908;28;20025;-76
2022/06/18 05:50:47;;;;;;;0.00;0.00;;;22.00;79.90;;;;;;5042586;28;20028;-75
2022/06/18 05:53:13;;;;;;;0.00;0.00;;;22.00;79.00;;;;;;5065329;28;20098;-75
2022/06/18 05:55:38;;;;;;;0.00;0.00;;;22.10;78.60;;;;;;5055470;28;20052;-76
2022/06/18 05:58:04;;;;;;;0.00;0.00;;;22.20;78.70;;;;;;5056075;28;20055;-75
2022/06/18 06:00:34;;;;;;;0.00;0.00;;;22.20;77.90;;;;;;5061803;28;20244;-76
2022/06/18 06:03:00;;;;;;;0.00;0.00;;;22.30;76.60;;;;;;5062262;28;20025;-75
2022/06/18 06:05:26;;;;;;;0.00;0.00;;;22.40;75.40;;;;;;5064769;28;20044;-74
2022/06/18 06:07:52;;;;;;;0.00;0.00;;;22.50;74.70;;;;;;5067349;28;20020;-75
2022/06/18 06:13:15;;;;;;;0.00;0.00;;;22.90;76.20;;;;;;5066313;28;20032;-75
2022/06/18 06:15:41;;;;;;;0.00;0.00;;;23.20;75.40;;;;;;5060438;28;20319;-74
2022/06/18 06:18:09;;;;;;;0.00;0.00;;;23.30;74.50;;;;;;5067104;28;20032;-74
2022/06/18 06:20:38;;;;;;;;;;;23.40;73.50;;;;;;5066283;28;20033;-75
2022/06/18 06:23:04;;;;;;;0.00;0.00;;;23.50;73.00;;;;;;5065564;28;19967;-75
2022/06/18 06:25:30;;;;;;;0.00;0.00;;;23.60;72.40;;;;;;5063191;28;20040;-76
2022/06/18 06:27:56;;;;;;;0.00;0.00;;;23.80;73.40;;;;;;5055382;28;20077;-74
2022/06/18 06:30:21;;;;;;;0.00;0.00;;;23.80;72.80;;;;;;5071258;28;20024;-75
2022/06/18 06:32:47;;;;;;;0.00;0.00;;;23.70;70.00;;;;;;5065230;28;20577;-75
2022/06/18 06:35:14;;;;;;;0.00;0.00;;;23.80;70.20;;;;;;5066444;28;20040;-74
2022/06/18 06:37:40;;;;;;;0.00;0.00;;;24.00;70.70;;;;;;5068519;28;20087;-75
2022/06/18 06:40:07;;;;;;;0.00;0.00;;;24.50;69.50;;;;;;5068944;28;20032;-76
2022/06/18 06:42:44;;;;;;;0.00;0.00;;;24.80;69.80;;;;;;5049620;28;20259;-76
2022/06/18 06:45:12;;;;;;;0.00;0.00;;;24.80;67.10;;;;;;5062589;28;20025;-76
2022/06/18 06:47:38;;;;;;;0.00;0.00;;;24.80;67.90;;;;;;5074911;28;20154;-78
2022/06/18 06:50:04;;;;;;;0.00;0.00;;;24.80;69.00;;;;;;5069372;28;20024;-75
2022/06/18 06:52:30;;;;;;;0.00;0.00;;;24.70;65.90;;;;;;5063288;28;20113;-75
2022/06/18 06:57:21;;;;;;;0.00;0.00;;;24.60;64.60;;;;;;5067109;28;20166;-75
2022/06/18 06:57:43;;;;;;;0.00;0.00;;;24.40;64.80;;;;;;5068951;28;20028;-74
2022/06/18 07:00:10;;;;;;;0.00;0.00;;;24.40;65.30;;;;;;5072453;28;20052;-75
2022/06/18 07:02:36;;;;;;;0.00;0.00;;;24.60;67.10;;;;;;5090034;28;20304;-75
2022/06/18 07:05:02;;;;;;;0.00;0.00;;;24.90;66.20;;;;;;5085067;28;20073;-75
2022/06/18 07:07:30;;;;;;;0.00;0.00;;;25.40;62.40;;;;;;5081027;28;20032;-76
2022/06/18 07:09:55;;;;;;;0.00;0.00;;;25.60;62.60;;;;;;5081203;28;20084;-76
2022/06/18 07:12:21;;;;;;;0.00;0.00;;;25.70;62.10;;;;;;5080684;28;20036;-75
2022/06/18 07:14:47;;;;;;;0.00;0.00;;;25.80;60.30;;;;;;5086256;28;20176;-75
2022/06/18 07:17:18;;;;;;;0.00;0.00;;;26.00;62.80;;;;;;5085030;28;20028;-74
2022/06/18 07:19:43;;;;;;;0.00;0.00;;;26.30;60.80;;;;;;5083087;28;20016;-76
2022/06/18 07:22:13;;;;;;;0.00;0.00;;;26.10;60.10;;;;;;5083141;28;20063;-75
2022/06/18 07:24:39;;;;;;;0.00;0.00;;;26.20;60.70;;;;;;5089893;28;20036;-75
2022/06/18 07:27:05;;;;;;;0.00;0.00;;;25.90;60.60;;;;;;5077943;28;20221;-75
2022/06/18 07:29:31;;;;;;;0.00;0.00;;;25.70;59.90;;;;;;5088850;28;20024;-75
2022/06/18 07:32:16;;;;;;;0.00;0.00;;;25.60;60.60;;;;;;5087299;28;20032;-75
2022/06/18 07:34:41;;;;;;;0.00;0.00;;;25.50;61.30;;;;;;5088638;28;20023;-74
2022/06/18 07:37:08;;;;;;;0.00;0.00;;;25.40;60.10;;;;;;5082886;28;20024;-75
2022/06/18 07:39:34;;;;;;;0.00;0.00;;;25.40;59.80;;;;;;5083196;28;20024;-74
2022/06/18 07:42:00;;;;;;;0.00;0.00;;;25.20;60.30;;;;;;5082188;28;20024;-74
2022/06/18 07:44:26;;;;;;;0.00;0.00;;;25.20;60.50;;;;;;5084124;28;20085;-74
2022/06/18 07:46:57;;;;;;;0.00;0.00;;;25.20;60.70;;;;;;5087029;28;20024;-74
2022/06/18 07:49:23;;;;;;;0.00;0.00;;;25.10;63.10;;;;;;5085984;28;20029;-75
2022/06/18 07:51:49;;;;;;;0.00;0.00;;;25.10;63.00;;;;;;5084613;28;20016;-74
2022/06/18 07:54:15;;;;;;;0.00;0.00;;;25.30;62.90;;;;;;5090070;28;20055;-76
2022/06/18 07:56:42;;;;;;;0.00;0.00;;;25.50;62.40;;;;;;5082430;28;20013;-76
2022/06/18 07:59:07;;;;;;;0.00;0.00;;;25.90;62.80;;;;;;5084092;28;20420;-76
2022/06/18 08:01:33;;;;;;;0.00;0.00;;;26.40;62.40;;;;;;5067522;28;20025;-75
2022/06/18 08:03:59;;;;;;;0.00;0.00;;;27.30;61.70;;;;;;5069824;28;20058;-76
2022/06/18 08:06:25;;;;;;;0.00;0.00;;;28.50;60.10;;;;;;5044425;28;20070;-75
2022/06/18 08:08:52;;;;;;;0.00;0.00;;;29.70;58.50;;;;;;5058538;28;20012;-75
2022/06/18 08:11:19;;;;;;;0.00;0.00;;;31.00;58.30;;;;;;5067234;28;20058;-79
2022/06/18 08:13:46;;;;;;;0.00;0.00;;;31.30;54.50;;;;;;5074373;28;20054;-78
2022/06/18 08:16:14;;;;;;;0.00;0.00;;;31.70;55.60;;;;;;5065055;28;20220;-76
2022/06/18 08:18:41;;;;;;;0.00;0.00;;;32.00;54.70;;;;;;5050797;28;20044;-76
2022/06/18 08:21:22;;;;;;;0.00;0.00;;;32.30;52.70;;;;;;5069421;28;20058;-76
2022/06/18 08:23:50;;;;;;;0.00;0.00;;;33.40;52.60;;;;;;5070097;28;20029;-80
2022/06/18 08:26:16;;;;;;;0.00;0.00;;;34.40;53.10;;;;;;5067242;28;20024;-78
2022/06/18 08:28:42;;;;;;;0.00;0.00;;;34.70;51.30;;;;;;5065277;28;20025;-75
2022/06/18 08:31:09;;;;;;;0.00;0.00;;;34.80;50.30;;;;;;5060127;28;20340;-78
2022/06/18 08:33:35;;;;;;;0.00;0.00;;;35.70;49.20;;;;;;5071938;28;20016;-75
2022/06/18 08:36:03;;;;;;;0.00;0.00;;;36.00;48.40;;;;;;5057376;28;20025;-76
2022/06/18 08:38:29;;;;;;;0.00;0.00;;;35.50;47.30;;;;;;5050522;28;20066;-76
2022/06/18 08:41:34;;;;;;;0.00;0.00;;;35.60;47.20;;;;;;5064577;28;20016;-79
2022/06/18 08:44:31;;;;;;;0.00;0.00;;;36.30;46.10;;;;;;5069240;28;20063;-76
2022/06/18 08:47:06;;;;;;;0.00;0.00;;;36.90;44.30;;;;;;5044268;28;20031;-76
2022/06/18 08:49:47;;;;;;;0.00;0.00;;;37.80;48.90;;;;;;5049236;28;20019;-75
2022/06/18 08:52:44;;;;;;;0.00;0.00;;;37.50;43.10;;;;;;5056809;28;20033;-75
2022/06/18 08:55:16;;;;;;;0.00;0.00;;;37.60;43.60;;;;;;5064646;28;20362;-79
2022/06/18 08:58:04;;;;;;;0.00;0.00;;;38.40;45.50;;;;;;5066791;28;20230;-75
2022/06/18 09:00:40;;;;;;;0.00;0.00;;;38.40;44.20;;;;;;5068754;28;20058;-76
2022/06/18 09:03:31;;;;;;;0.00;0.00;;;38.20;42.70;;;;;;5087178;28;20043;-76
2022/06/18 09:06:24;;;;;;;0.00;0.00;;;37.80;42.40;;;;;;5075937;28;20055;-81
2022/06/18 09:08:58;;;;;;;0.00;0.00;;;38.30;43.60;;;;;;5046432;28;20028;-76
2022/06/18 09:11:46;;;;;;;0.00;0.00;;;38.10;42.20;;;;;;5093855;28;20032;-76
2022/06/18 09:14:20;;;;;;;0.00;0.00;;;37.60;42.00;;;;;;5085369;28;20073;-76
2022/06/18 09:17:15;;;;;;;0.00;0.00;;;37.50;42.30;;;;;;5087948;28;20224;-75
2022/06/18 09:19:44;;;;;;;0.00;0.00;;;38.80;41.70;;;;;;5087278;28;20029;-76
2022/06/18 09:22:20;;;;;;;0.00;0.00;;;39.90;41.70;;;;;;5086846;28;20036;-76
2022/06/18 09:24:54;;;;;;;0.00;0.00;;;40.30;40.30;;;;;;5082885;28;20066;-76
2022/06/18 09:27:40;;;;;;;0.00;0.00;;;40.20;40.10;;;;;;5083282;28;20062;-75
2022/06/18 09:30:14;;;;;;;0.00;0.00;;;40.70;38.40;;;;;;5081620;28;20031;-75
2022/06/18 09:33:04;;;;;;;0.00;0.00;;;40.90;38.90;;;;;;5087002;28;20028;-75
2022/06/18 09:35:35;;;;;;;0.00;0.00;;;41.80;39.70;;;;;;5082853;28;20058;-77
2022/06/18 09:38:01;;;;;;;0.00;0.00;;;42.30;39.20;;;;;;5085950;28;20017;-74
2022/06/18 09:40:29;;;;;;;;;;;42.60;38.50;;;;;;5083745;28;20070;-76
2022/06/18 09:43:14;;;;;;;0.00;0.00;;;43.00;38.60;;;;;;5090589;28;20192;-75
2022/06/18 09:45:48;;;;;;;0.00;0.00;;;43.60;38.90;;;;;;5086366;28;20068;-76
2022/06/18 09:48:14;;;;;;;0.00;0.00;;;42.90;38.00;;;;;;5085060;28;20365;-75
2022/06/18 09:50:42;;;;;;;;;;;42.40;38.20;;;;;;5086719;28;20044;-75
2022/06/18 09:53:15;;;;;;;0.00;0.00;;;42.40;37.60;;;;;;5083268;28;19958;-77
2022/06/18 09:55:51;;;;;;;0.00;0.00;;;43.00;38.50;;;;;;5081434;28;20028;-75
2022/06/18 09:58:24;;;;;;;0.00;0.00;;;42.90;38.30;;;;;;5090511;28;20119;-74
2022/06/18 10:00:54;;;;;;;0.00;0.00;;;42.90;36.90;;;;;;5089122;28;20556;-74
2022/06/18 10:09:03;;;;;;;0.00;0.00;;;45.40;35.30;;;;;;5089548;28;20284;-75
2022/06/18 10:11:29;;;;;;;0.00;0.00;;;46.20;35.90;;;;;;5087475;28;20016;-75
2022/06/18 10:14:06;;;;;;;0.00;0.00;;;46.30;34.80;;;;;;5090363;28;20023;-78
2022/06/18 10:16:35;;;;;;;0.00;0.00;;;46.50;34.40;;;;;;5083152;28;20039;-75
2022/06/18 10:19:38;;;;;;;0.00;0.00;;;47.00;34.60;;;;;;5087820;28;20017;-77
2022/06/18 10:22:19;;;;;;;0.00;0.00;;;47.20;35.40;;;;;;5088231;28;20081;-77
2022/06/18 10:25:14;;;;;;;0.00;0.00;;;47.30;33.90;;;;;;5092224;28;20028;-75
2022/06/18 10:28:04;;;;;;;0.00;0.00;;;47.50;33.20;;;;;;5089656;28;20016;-78
2022/06/18 10:31:15;;;;;;;0.00;0.00;;;48.00;34.60;;;;;;5082775;28;20037;-75
2022/06/18 10:34:10;;;;;;;0.00;0.00;;;47.00;33.10;;;;;;5054775;28;20043;-75
2022/06/18 10:37:01;;;;;;;0.00;0.00;;;46.20;34.20;;;;;;5086717;28;20026;-75
2022/06/18 10:39:26;;;;;;;0.00;0.00;;;46.20;33.40;;;;;;5088336;28;20039;-74
2022/06/18 10:41:58;;;;;;;0.00;0.00;;;46.30;34.60;;;;;;5091201;28;20315;-75
2022/06/18 10:44:50;;;;;;;0.00;0.00;;;46.70;33.90;;;;;;5090472;28;20025;-75
2022/06/18 10:47:17;;;;;;;0.00;0.00;;;47.00;33.70;;;;;;5088266;28;20090;-75
2022/06/18 10:49:46;;;;;;;0.00;0.00;;;46.80;33.50;;;;;;5090372;28;20047;-75
2022/06/18 10:52:23;;;;;;;0.00;0.00;;;46.90;34.70;;;;;;5087477;28;20088;-76
2022/06/18 10:54:51;;;;;;;0.00;0.00;;;46.60;33.70;;;;;;5088523;28;20020;-75
2022/06/18 10:57:27;;;;;;;0.00;0.00;;;46.40;33.10;;;;;;5082917;28;20291;-76
2022/06/18 10:59:53;;;;;;;0.00;0.00;;;47.10;33.30;;;;;;5085270;28;20111;-79
2022/06/18 11:02:32;;;;;;;0.00;0.00;;;47.80;33.50;;;;;;5066059;28;20043;-74
2022/06/18 11:05:20;;;;;;;0.00;0.00;;;48.70;33.10;;;;;;5068876;28;20625;-76
2022/06/18 11:07:49;;;;;;;0.00;0.00;;;49.20;32.70;;;;;;5068155;28;20033;-75
2022/06/18 11:10:33;;;;;;;0.00;0.00;;;49.40;33.60;;;;;;5067023;28;20021;-75
2022/06/18 11:13:03;;;;;;;0.00;0.00;;;48.80;33.00;;;;;;5070869;28;20029;-82
2022/06/18 11:15:38;;;;;;;0.00;0.00;;;49.00;33.60;;;;;;5067287;28;20349;-76
2022/06/18 11:18:19;;;;;;;0.00;0.00;;;47.60;32.50;;;;;;5070394;28;20030;-76
2022/06/18 11:21:00;;;;;;;0.00;0.00;;;47.30;32.60;;;;;;5035026;28;20095;-76
2022/06/18 11:23:27;;;;;;;0.00;0.00;;;46.00;32.50;;;;;;5054032;28;20032;-75
2022/06/18 11:25:56;;;;;;;0.00;0.00;;;44.70;32.30;;;;;;5050072;28;20025;-74
2022/06/18 11:28:28;;;;;;;0.00;0.00;;;43.40;33.20;;;;;;5045780;28;20028;-75
2022/06/18 11:30:54;;;;;;;0.00;0.00;;;42.90;34.20;;;;;;5052280;28;20079;-78
2022/06/18 11:33:37;;;;;;;0.00;0.00;;;42.90;33.90;;;;;;5066565;28;20044;-74
2022/06/18 11:36:15;;;;;;;0.00;0.00;;;42.30;33.70;;;;;;5066925;28;20300;-79
2022/06/18 11:38:50;;;;;;;0.00;0.00;;;40.70;34.90;;;;;;5066397;28;20021;-74
2022/06/18 11:41:21;;;;;;;0.00;0.00;;;39.70;35.90;;;;;;5049507;28;20292;-74
2022/06/18 11:43:47;;;;;;;0.00;0.00;;;38.40;37.20;;;;;;5049158;28;20465;-74
2022/06/18 11:46:58;;;;;;;0.00;0.00;;;37.20;37.40;;;;;;5068317;28;20013;-75
2022/06/18 11:49:30;;;;;;;0.00;0.00;;;36.60;38.40;;;;;;4967359;28;20031;-75
2022/06/18 11:52:17;;;;;;;0.00;0.00;;;35.90;39.50;;;;;;4951463;28;20319;-75
2022/06/18 11:55:21;;;;;;;0.00;0.00;;;35.30;40.20;;;;;;4968778;28;20026;-76
2022/06/18 11:58:21;;;;;;;0.00;0.00;;;34.50;40.30;;;;;;4964739;28;20023;-75
2022/06/18 12:01:10;;;;;;;0.00;0.00;;;34.00;42.00;;;;;;4994960;28;20070;-75
2022/06/18 12:03:50;;;;;;;0.00;0.00;;;33.60;41.50;;;;;;5005086;28;20056;-75
2022/06/18 12:06:46;;;;;;;0.00;0.00;;;33.40;41.30;;;;;;5004470;28;20276;-77
2022/06/18 12:09:13;;;;;;;0.00;0.00;;;33.30;41.40;;;;;;5005735;28;20034;-75
2022/06/18 12:11:49;;;;;;;0.00;0.00;;;33.10;43.10;;;;;;5008366;28;20034;-75
2022/06/18 12:14:36;;;;;;;0.00;0.00;;;32.90;42.70;;;;;;5004873;28;20034;-75
2022/06/18 12:17:02;;;;;;;;;;;32.80;42.20;;;;;;5007748;28;20018;-76
2022/06/18 12:19:46;;;;;;;0.00;0.00;;;32.60;41.90;;;;;;5024458;28;19912;-82
2022/06/18 12:22:45;;;;;;;0.00;0.00;;;32.60;42.90;;;;;;5094095;28;20028;-75
2022/06/18 12:25:38;;;;;;;0.00;0.00;;;32.50;42.90;;;;;;5034889;28;20032;-77
2022/06/18 12:28:10;;;;;;;0.00;0.00;;;32.30;42.50;;;;;;5087791;28;20020;-75
2022/06/18 12:30:47;;;;;;;0.00;0.00;;;32.30;43.10;;;;;;5088743;28;20036;-75
2022/06/18 12:33:31;;;;;;;;;;;32.20;44.10;;;;;;5084449;28;20035;-75
2022/06/18 12:36:13;;;;;;;0.00;0.00;;;32.10;43.80;;;;;;5084958;28;20443;-75
2022/06/18 12:38:57;;;;;;;0.00;0.00;;;32.00;43.30;;;;;;5087028;28;20095;-76
2022/06/18 12:41:43;;;;;;;0.00;0.00;;;32.00;44.20;;;;;;5087921;28;20027;-78
2022/06/18 12:44:28;;;;;;;0.00;0.00;;;31.90;44.60;;;;;;5084618;28;20116;-75
2022/06/18 12:47:05;;;;;;;0.00;0.00;;;31.80;44.20;;;;;;5086077;28;20017;-77
2022/06/18 12:50:00;;;;;;;0.00;0.00;;;31.70;43.00;;;;;;5088528;28;20023;-76
2022/06/18 12:52:43;;;;;;;0.00;0.00;;;31.50;44.20;;;;;;5086580;28;20028;-75
2022/06/18 12:55:27;;;;;;;0.00;0.00;;;31.50;43.90;;;;;;5081423;28;20029;-75
2022/06/18 12:58:08;;;;;;;0.00;0.00;;;31.30;43.70;;;;;;5086262;28;20090;-75
2022/06/18 13:01:02;;;;;;;0.00;0.00;;;31.30;44.30;;;;;;5074296;28;20052;-75
2022/06/18 13:03:42;;;;;;;0.00;0.00;;;31.20;43.80;;;;;;5062098;28;20213;-81
2022/06/18 13:06:50;;;;;;;0.00;0.00;;;31.10;44.10;;;;;;5052019;28;20300;-78
2022/06/18 13:09:34;;;;;;;0.00;0.00;;;31.00;44.50;;;;;;5066495;28;20086;-75
2022/06/18 13:12:14;;;;;;;0.00;0.00;;;30.90;44.50;;;;;;5067022;28;20066;-74
2022/06/18 13:15:07;;;;;;;0.00;0.00;;;30.90;44.50;;;;;;5046815;28;20296;-75
2022/06/18 13:17:43;;;;;;;0.00;0.00;;;30.90;45.40;;;;;;5064558;28;20080;-74
2022/06/18 13:20:31;;;;;;;0.00;0.00;;;30.90;45.70;;;;;;5066130;28;20020;-74
2022/06/18 13:22:57;;;;;;;0.00;0.00;;;30.80;45.80;;;;;;5066869;28;20100;-77
2022/06/18 13:28:30;;;;;;;0.00;0.00;;;30.90;46.40;;;;;;5066304;28;20099;-75
2022/06/18 13:31:29;;;;;;;0.00;0.00;;;30.90;47.20;;;;;;5050539;28;20031;-75